createdAt,value
2018-12-24T00:04:02.240Z,11.90
2018-12-24T00:07:19.047Z,11.90
2018-12-24T00:10:36.691Z,11.90
2018-12-24T00:13:53.984Z,12.00
2018-12-24T00:17:11.531Z,12.00
2018-12-24T00:20:29.164Z,12.00
2018-12-24T00:23:46.588Z,12.00
2018-12-24T00:27:03.324Z,11.90
2018-12-24T00:30:20.090Z,11.90
2018-12-24T00:33:36.827Z,11.80
2018-12-24T00:36:54.317Z,11.80
2018-12-24T00:40:11.696Z,11.80
2018-12-24T00:43:28.996Z,11.70
2018-12-24T00:46:46.220Z,11.80
2018-12-24T00:50:03.713Z,11.80
2018-12-24T00:53:21.239Z,11.80
2018-12-24T00:56:38.676Z,11.70
2018-12-24T00:59:54.179Z,11.40
2018-12-24T01:03:18.664Z,10.90
2018-12-24T01:06:34.224Z,10.40
2018-12-24T01:09:58.697Z,10.00
2018-12-24T01:13:14.323Z,9.70
2018-12-24T01:16:38.876Z,9.40
2018-12-24T01:19:56.040Z,9.10
2018-12-24T01:23:12.914Z,8.80
2018-12-24T01:26:30.280Z,8.70
2018-12-24T01:29:47.927Z,8.40
2018-12-24T01:33:05.436Z,8.30
2018-12-24T01:36:22.929Z,8.20
2018-12-24T01:39:39.847Z,8.20
2018-12-24T01:42:57.301Z,8.10
2018-12-24T01:46:14.016Z,8.00
2018-12-24T01:49:31.371Z,8.00
2018-12-24T01:52:48.463Z,7.80
2018-12-24T01:56:06.032Z,7.80
2018-12-24T01:59:23.112Z,7.80
2018-12-24T02:02:40.671Z,7.80
2018-12-24T02:05:58.141Z,7.80
2018-12-24T02:09:15.739Z,7.90
2018-12-24T02:12:32.585Z,7.90
2018-12-24T02:15:48.053Z,7.90
2018-12-24T02:19:04.860Z,7.90
2018-12-24T02:22:20.499Z,7.90
2018-12-24T02:25:37.473Z,7.90
2018-12-24T02:28:54.872Z,7.90
2018-12-24T02:32:12.381Z,7.90
2018-12-24T02:35:29.845Z,7.90
2018-12-24T02:38:46.799Z,7.90
2018-12-24T02:42:04.348Z,7.90
2018-12-24T02:45:21.963Z,7.80
2018-12-24T02:48:39.104Z,7.60
2018-12-24T02:51:56.104Z,7.40
2018-12-24T02:55:13.114Z,7.20
2018-12-24T02:58:29.961Z,7.10
2018-12-24T03:01:47.149Z,7.00
2018-12-24T03:05:04.540Z,6.90
2018-12-24T03:08:21.774Z,6.90
2018-12-24T03:11:39.342Z,6.90
2018-12-24T03:14:56.731Z,6.90
2018-12-24T03:18:12.379Z,6.80
2018-12-24T03:21:36.933Z,6.70
2018-12-24T03:24:54.192Z,6.60
2018-12-24T03:28:11.712Z,6.50
2018-12-24T03:31:27.344Z,6.40
2018-12-24T03:34:51.889Z,6.30
2018-12-24T03:38:08.638Z,6.30
2018-12-24T03:41:25.523Z,6.20
2018-12-24T03:44:42.348Z,6.20
2018-12-24T03:47:59.487Z,6.20
2018-12-24T03:51:16.596Z,6.10
2018-12-24T03:54:34.015Z,6.10
2018-12-24T03:57:51.562Z,6.10
2018-12-24T04:01:08.956Z,6.00
2018-12-24T04:04:26.539Z,6.10
2018-12-24T04:07:43.644Z,6.10
2018-12-24T04:11:00.386Z,6.10
2018-12-24T04:14:18.012Z,6.20
2018-12-24T04:17:35.455Z,6.20
2018-12-24T04:20:52.793Z,6.20
2018-12-24T04:24:09.515Z,6.10
2018-12-24T04:27:26.468Z,6.00
2018-12-24T04:30:43.322Z,6.00
2018-12-24T04:34:00.468Z,5.90
2018-12-24T04:37:17.759Z,5.90
2018-12-24T04:40:35.073Z,5.90
2018-12-24T04:43:52.316Z,5.90
2018-12-24T04:47:09.164Z,5.90
2018-12-24T04:50:24.784Z,5.90
2018-12-24T04:53:49.248Z,6.00
2018-12-24T04:57:06.674Z,6.10
2018-12-24T05:00:23.665Z,6.00
2018-12-24T05:03:40.684Z,6.00
2018-12-24T05:06:57.976Z,6.00
2018-12-24T05:10:15.024Z,6.00
2018-12-24T05:13:40.643Z,6.00
2018-12-24T05:16:51.696Z,6.00
2018-12-24T05:20:08.749Z,5.90
2018-12-24T05:23:25.548Z,5.80
2018-12-24T05:26:43.051Z,5.80
2018-12-24T05:29:59.903Z,5.70
2018-12-24T05:33:15.503Z,5.70
2018-12-24T05:36:32.815Z,5.70
2018-12-24T05:39:50.110Z,5.70
2018-12-24T05:43:07.545Z,5.70
2018-12-24T05:46:24.175Z,5.70
2018-12-24T05:49:40.801Z,5.70
2018-12-24T05:52:59.409Z,5.60
2018-12-24T05:56:23.903Z,5.60
2018-12-24T05:59:41.107Z,5.50
2018-12-24T06:02:58.312Z,5.50
2018-12-24T06:06:15.762Z,5.50
2018-12-24T06:09:32.904Z,5.50
2018-12-24T06:12:50.492Z,5.50
2018-12-24T06:16:08.036Z,5.50
2018-12-24T06:19:25.595Z,5.50
2018-12-24T06:22:42.838Z,5.50
2018-12-24T06:25:59.685Z,5.50
2018-12-24T06:29:16.691Z,5.60
2018-12-24T06:32:33.477Z,5.60
2018-12-24T06:35:50.245Z,5.60
2018-12-24T06:39:07.416Z,5.70
2018-12-24T06:42:24.670Z,5.70
2018-12-24T06:45:42.052Z,5.70
2018-12-24T06:48:58.867Z,5.70
2018-12-24T06:52:15.776Z,5.70
2018-12-24T06:55:33.132Z,5.60
2018-12-24T06:58:50.251Z,5.60
2018-12-24T07:02:07.203Z,5.60
2018-12-24T07:05:24.727Z,5.50
2018-12-24T07:08:41.681Z,5.50
2018-12-24T07:11:58.987Z,5.50
2018-12-24T07:15:15.852Z,5.60
2018-12-24T07:18:32.956Z,5.60
2018-12-24T07:21:50.016Z,5.50
2018-12-24T07:25:07.599Z,5.60
2018-12-24T07:28:24.398Z,5.50
2018-12-24T07:31:41.791Z,5.50
2018-12-24T07:34:59.430Z,5.50
2018-12-24T07:38:16.840Z,5.40
2018-12-24T07:41:34.328Z,5.40
2018-12-24T07:44:51.768Z,5.40
2018-12-24T07:48:08.758Z,5.40
2018-12-24T07:51:25.711Z,5.40
2018-12-24T07:54:42.387Z,5.40
2018-12-24T07:57:59.967Z,5.40
2018-12-24T08:01:17.165Z,5.40
2018-12-24T08:04:34.343Z,5.40
2018-12-24T08:07:51.544Z,5.40
2018-12-24T08:11:08.453Z,5.50
2018-12-24T08:14:32.706Z,5.50
2018-12-24T08:17:44.544Z,5.60
2018-12-24T08:21:01.484Z,5.60
2018-12-24T08:24:18.267Z,5.70
2018-12-24T08:27:35.396Z,5.70
2018-12-24T08:30:52.199Z,5.70
2018-12-24T08:34:09.520Z,5.70
2018-12-24T08:37:26.340Z,5.80
2018-12-24T08:40:43.507Z,5.80
2018-12-24T08:44:00.946Z,5.80
2018-12-24T08:47:18.027Z,5.80
2018-12-24T08:50:35.452Z,5.80
2018-12-24T08:53:52.571Z,5.80
2018-12-24T08:57:09.810Z,5.80
2018-12-24T09:00:26.715Z,5.90
2018-12-24T09:03:43.911Z,5.90
2018-12-24T09:07:00.880Z,6.00
2018-12-24T09:10:17.939Z,6.10
2018-12-24T09:13:34.844Z,6.10
2018-12-24T09:16:52.238Z,6.20
2018-12-24T09:20:09.472Z,6.20
2018-12-24T09:23:26.980Z,6.20
2018-12-24T09:26:43.904Z,6.20
2018-12-24T09:30:00.947Z,6.30
2018-12-24T09:33:18.204Z,6.30
2018-12-24T09:36:35.564Z,6.20
2018-12-24T09:39:52.666Z,6.20
2018-12-24T09:43:09.736Z,6.20
2018-12-24T09:46:26.583Z,6.20
2018-12-24T09:49:43.484Z,6.10
2018-12-24T09:53:00.637Z,6.10
2018-12-24T09:56:16.241Z,6.20
2018-12-24T09:59:40.719Z,6.20
2018-12-24T10:02:58.112Z,6.20
2018-12-24T10:06:15.583Z,6.30
2018-12-24T10:09:32.624Z,6.30
2018-12-24T10:12:49.880Z,6.40
2018-12-24T10:16:07.116Z,6.50
2018-12-24T10:19:24.172Z,6.60
2018-12-24T10:22:41.216Z,6.70
2018-12-24T10:25:57.920Z,6.70
2018-12-24T10:29:15.439Z,6.80
2018-12-24T10:32:32.264Z,6.70
2018-12-24T10:35:49.513Z,6.70
2018-12-24T10:39:06.461Z,6.70
2018-12-24T10:42:23.879Z,6.70
2018-12-24T10:45:41.027Z,6.80
2018-12-24T10:48:56.627Z,6.80
2018-12-24T10:52:13.253Z,6.80
2018-12-24T10:55:29.979Z,6.80
2018-12-24T10:58:47.077Z,6.80
2018-12-24T11:02:03.948Z,6.80
2018-12-24T11:05:20.777Z,6.90
2018-12-24T11:08:38.079Z,7.00
2018-12-24T11:11:43.471Z,7.00
2018-12-24T11:15:08.988Z,7.00
2018-12-24T11:18:26.497Z,7.10
2018-12-24T11:21:42.107Z,7.00
2018-12-24T11:24:59.168Z,7.00
2018-12-24T11:28:16.015Z,7.00
2018-12-24T11:31:32.858Z,7.00
2018-12-24T11:34:49.895Z,7.00
2018-12-24T11:38:06.968Z,6.90
2018-12-24T11:41:23.748Z,7.00
2018-12-24T11:44:40.623Z,7.00
2018-12-24T11:47:57.947Z,7.10
2018-12-24T11:51:15.083Z,7.10
2018-12-24T11:54:32.379Z,7.20
2018-12-24T11:57:49.772Z,7.30
2018-12-24T12:01:07.033Z,7.20
2018-12-24T12:04:24.680Z,7.20
2018-12-24T12:07:41.857Z,7.20
2018-12-24T12:10:58.952Z,7.30
2018-12-24T12:14:16.116Z,7.30
2018-12-24T12:17:33.196Z,7.20
2018-12-24T12:20:52.615Z,7.20
2018-12-24T12:24:09.581Z,7.20
2018-12-24T12:27:27.111Z,7.30
2018-12-24T12:30:44.563Z,7.30
2018-12-24T12:34:02.299Z,7.10
2018-12-24T12:37:19.654Z,7.00
2018-12-24T12:40:36.814Z,7.00
2018-12-24T12:43:53.608Z,7.10
2018-12-24T12:47:10.497Z,7.20
2018-12-24T12:50:27.284Z,7.40
2018-12-24T12:53:44.908Z,7.40
2018-12-24T12:57:02.492Z,7.50
2018-12-24T13:00:19.871Z,7.60
2018-12-24T13:03:37.436Z,7.60
2018-12-24T13:06:55.130Z,7.50
2018-12-24T13:10:12.244Z,7.30
2018-12-24T13:13:36.662Z,7.10
2018-12-24T13:16:48.277Z,7.10
2018-12-24T13:20:05.923Z,7.00
2018-12-24T13:23:22.627Z,6.80
2018-12-24T13:26:39.751Z,6.60
2018-12-24T13:29:57.251Z,6.30
2018-12-24T13:33:14.567Z,6.20
2018-12-24T13:36:31.660Z,6.00
2018-12-24T13:39:47.249Z,5.90
2018-12-24T13:43:41.807Z,5.80
2018-12-24T13:46:58.615Z,5.80
2018-12-24T13:50:15.126Z,5.70
2018-12-24T13:53:32.296Z,5.70
2018-12-24T13:56:49.427Z,5.80
2018-12-24T14:00:06.670Z,5.80
2018-12-24T14:03:23.313Z,5.80
2018-12-24T14:06:40.333Z,5.80
2018-12-24T14:09:57.707Z,5.80
2018-12-24T14:13:14.319Z,5.80
2018-12-24T14:16:30.880Z,5.90
2018-12-24T14:19:47.592Z,6.00
2018-12-24T14:23:04.236Z,6.10
2018-12-24T14:26:20.886Z,6.20
2018-12-24T14:29:37.543Z,6.20
2018-12-24T14:32:54.160Z,6.20
2018-12-24T14:36:09.412Z,6.20
2018-12-24T14:39:33.650Z,6.20
2018-12-24T14:42:50.818Z,6.20
2018-12-24T14:46:07.603Z,6.20
2018-12-24T14:49:24.100Z,6.20
2018-12-24T14:52:40.747Z,6.20
2018-12-24T14:55:57.379Z,6.20
2018-12-24T14:59:14.272Z,6.20
2018-12-24T15:02:30.747Z,6.20
2018-12-24T15:05:47.575Z,6.20
2018-12-24T15:09:05.085Z,6.20
2018-12-24T15:12:20.376Z,6.20
2018-12-24T15:15:44.603Z,6.30
2018-12-24T15:19:01.374Z,6.30
2018-12-24T15:22:18.104Z,6.40
2018-12-24T15:25:35.036Z,6.50
2018-12-24T15:28:52.076Z,6.60
2018-12-24T15:32:08.659Z,6.60
2018-12-24T15:35:25.448Z,6.60
2018-12-24T15:38:42.443Z,6.60
2018-12-24T15:41:59.265Z,6.60
2018-12-24T15:45:16.207Z,6.50
2018-12-24T15:48:33.279Z,6.50
2018-12-24T15:51:50.143Z,6.40
2018-12-24T15:55:06.860Z,6.40
2018-12-24T15:58:23.715Z,6.40
2018-12-24T16:01:40.228Z,6.40
2018-12-24T16:04:57.132Z,6.40
2018-12-24T16:08:13.687Z,6.40
2018-12-24T16:11:30.424Z,6.50
2018-12-24T16:14:47.591Z,6.40
2018-12-24T16:18:04.211Z,6.40
2018-12-24T16:21:20.692Z,6.40
2018-12-24T16:24:37.348Z,6.30
2018-12-24T16:27:53.973Z,6.40
2018-12-24T16:31:10.635Z,6.40
2018-12-24T16:34:27.328Z,6.30
2018-12-24T16:37:44.219Z,6.30
2018-12-24T16:41:01.508Z,6.30
2018-12-24T16:44:16.810Z,6.20
2018-12-24T16:47:33.459Z,6.30
2018-12-24T16:50:50.899Z,6.30
2018-12-24T16:54:07.959Z,6.40
2018-12-24T16:57:24.746Z,6.40
2018-12-24T17:00:41.187Z,6.30
2018-12-24T17:03:58.088Z,6.30
2018-12-24T17:07:15.129Z,6.30
2018-12-24T17:10:31.823Z,6.30
2018-12-24T17:13:48.515Z,6.30
2018-12-24T17:17:07.899Z,6.30
2018-12-24T17:20:25.547Z,6.30
2018-12-24T17:23:42.755Z,6.40
2018-12-24T17:26:59.836Z,6.40
2018-12-24T17:30:16.548Z,6.40
2018-12-24T17:33:33.265Z,6.50
2018-12-24T17:36:50.014Z,6.40
2018-12-24T17:40:06.832Z,6.50
2018-12-24T17:43:23.782Z,6.40
2018-12-24T17:46:40.860Z,6.40
2018-12-24T17:49:57.578Z,6.40
2018-12-24T17:53:14.432Z,6.40
2018-12-24T17:56:31.163Z,6.40
2018-12-24T17:59:47.704Z,6.50
2018-12-24T18:03:04.443Z,6.40
2018-12-24T18:06:21.283Z,6.30
2018-12-24T18:09:38.221Z,6.30
2018-12-24T18:12:55.491Z,6.20
2018-12-24T18:16:12.425Z,6.20
2018-12-24T18:19:29.179Z,6.10
2018-12-24T18:22:45.927Z,6.00
2018-12-24T18:26:02.392Z,6.00
2018-12-24T18:29:19.239Z,5.90
2018-12-24T18:32:35.789Z,5.80
2018-12-24T18:35:52.711Z,5.70
2018-12-24T18:39:09.291Z,5.60
2018-12-24T18:42:25.763Z,5.50
2018-12-24T18:45:41.071Z,5.40
2018-12-24T18:49:05.312Z,5.30
2018-12-24T18:52:21.988Z,5.20
2018-12-24T18:55:39.239Z,5.10
2018-12-24T18:58:56.027Z,5.00
2018-12-24T19:02:12.795Z,4.90
2018-12-24T19:05:29.528Z,4.80
2018-12-24T19:08:46.169Z,4.70
2018-12-24T19:12:03.008Z,4.60
2018-12-24T19:15:19.842Z,4.60
2018-12-24T19:18:36.380Z,4.50
2018-12-24T19:21:53.703Z,4.50
2018-12-24T19:25:10.159Z,4.50
2018-12-24T19:28:26.735Z,4.50
2018-12-24T19:31:43.791Z,4.50
2018-12-24T19:35:00.559Z,4.60
2018-12-24T19:38:17.707Z,4.70
2018-12-24T19:41:34.161Z,4.80
2018-12-24T19:44:50.724Z,4.90
2018-12-24T19:48:08.063Z,4.90
2018-12-24T19:51:24.564Z,4.90
2018-12-24T19:54:41.413Z,4.90
2018-12-24T19:57:58.520Z,5.00
2018-12-24T20:01:15.258Z,5.00
2018-12-24T20:04:31.988Z,5.00
2018-12-24T20:07:49.068Z,5.00
2018-12-24T20:11:06.436Z,5.10
2018-12-24T20:14:23.372Z,5.10
2018-12-24T20:17:39.902Z,5.10
2018-12-24T20:20:56.593Z,5.10
2018-12-24T20:24:13.149Z,5.10
2018-12-24T20:27:29.979Z,5.20
2018-12-24T20:30:46.489Z,5.20
2018-12-24T20:34:03.880Z,5.20
2018-12-24T20:37:21.260Z,5.10
2018-12-24T20:40:38.047Z,5.10
2018-12-24T20:43:54.616Z,5.10
2018-12-24T20:47:11.784Z,5.10
2018-12-24T20:50:28.835Z,5.10
2018-12-24T20:53:45.328Z,5.20
2018-12-24T20:57:02.147Z,5.20
2018-12-24T21:00:18.892Z,5.30
2018-12-24T21:03:36.178Z,5.30
2018-12-24T21:06:53.219Z,5.20
2018-12-24T21:10:10.503Z,5.20
2018-12-24T21:13:27.279Z,5.20
2018-12-24T21:16:43.880Z,5.10
2018-12-24T21:20:00.784Z,5.10
2018-12-24T21:23:17.587Z,5.00
2018-12-24T21:26:34.611Z,5.00
2018-12-24T21:29:51.507Z,4.90
2018-12-24T21:33:08.526Z,4.90
2018-12-24T21:36:25.324Z,4.90
2018-12-24T21:39:42.172Z,4.90
2018-12-24T21:42:58.692Z,4.80
2018-12-24T21:46:15.411Z,4.80
2018-12-24T21:49:30.647Z,4.90
2018-12-24T21:52:54.824Z,4.90
2018-12-24T21:56:11.967Z,4.80
2018-12-24T21:59:28.380Z,4.80
2018-12-24T22:02:45.765Z,4.80
2018-12-24T22:06:03.147Z,4.80
2018-12-24T22:09:21.658Z,4.90
2018-12-24T22:12:36.672Z,4.90
2018-12-24T22:16:02.324Z,4.90
2018-12-24T22:19:28.549Z,4.90
2018-12-24T22:22:45.199Z,5.00
2018-12-24T22:26:01.971Z,5.00
2018-12-24T22:29:18.843Z,5.00
2018-12-24T22:32:35.368Z,5.00
2018-12-24T22:35:52.297Z,5.00
2018-12-24T22:39:09.576Z,4.90
2018-12-24T22:42:26.467Z,4.90
2018-12-24T22:45:42.932Z,4.90
2018-12-24T22:48:59.675Z,4.80
2018-12-24T22:52:16.447Z,4.70
2018-12-24T22:55:33.179Z,4.50
2018-12-24T22:58:49.843Z,4.40
2018-12-24T23:02:07.117Z,4.20
2018-12-24T23:05:24.404Z,4.10
2018-12-24T23:08:41.511Z,4.00
2018-12-24T23:11:58.241Z,3.90
2018-12-24T23:15:13.555Z,3.80
2018-12-24T23:18:30.553Z,3.80
2018-12-24T23:21:47.352Z,3.80
2018-12-24T23:25:03.911Z,3.80
2018-12-24T23:28:21.115Z,3.80
2018-12-24T23:31:37.872Z,3.90
2018-12-24T23:34:54.727Z,3.90
2018-12-24T23:38:11.260Z,3.90
2018-12-24T23:41:27.927Z,3.90
2018-12-24T23:44:44.400Z,3.90
2018-12-24T23:48:01.368Z,3.90
2018-12-24T23:51:18.179Z,4.00
2018-12-24T23:54:35.543Z,4.00
2018-12-24T23:57:52.867Z,4.00
